sensor_id;sensor_type;location;lat;lon;timestamp;P1;durP1;ratioP1;P2;durP2;ratioP2
66487;SDS011;53304;54.550;18.526;2023-05-16T00:01:25;4.72;;;2.40;;
66487;SDS011;53304;54.550;18.526;2023-05-16T00:03:56;3.90;;;2.10;;
66487;SDS011;53304;54.550;18.526;2023-05-16T00:06:22;4.05;;;2.22;;
66487;SDS011;53304;54.550;18.526;2023-05-16T00:08:49;3.63;;;2.20;;
66487;SDS011;53304;54.550;18.526;2023-05-16T00:11:15;4.07;;;2.20;;
66487;SDS011;53304;54.550;18.526;2023-05-16T00:13:41;4.53;;;2.40;;
66487;SDS011;53304;54.550;18.526;2023-05-16T00:16:07;4.60;;;2.08;;
66487;SDS011;53304;54.550;18.526;2023-05-16T00:18:35;3.22;;;2.05;;
66487;SDS011;53304;54.550;18.526;2023-05-16T00:21:04;4.40;;;2.30;;
66487;SDS011;53304;54.550;18.526;2023-05-16T00:23:32;3.85;;;2.40;;
66487;SDS011;53304;54.550;18.526;2023-05-16T00:26:00;2.67;;;1.95;;
66487;SDS011;53304;54.550;18.526;2023-05-16T00:28:25;3.63;;;2.17;;
66487;SDS011;53304;54.550;18.526;2023-05-16T00:30:51;4.45;;;2.00;;
66487;SDS011;53304;54.550;18.526;2023-05-16T00:33:19;3.70;;;2.10;;
66487;SDS011;53304;54.550;18.526;2023-05-16T00:35:44;3.20;;;2.13;;
66487;SDS011;53304;54.550;18.526;2023-05-16T00:38:13;4.45;;;2.40;;
66487;SDS011;53304;54.550;18.526;2023-05-16T00:40:43;4.75;;;2.28;;
66487;SDS011;53304;54.550;18.526;2023-05-16T00:43:11;3.67;;;2.00;;
66487;SDS011;53304;54.550;18.526;2023-05-16T00:45:36;4.15;;;2.10;;
66487;SDS011;53304;54.550;18.526;2023-05-16T00:48:04;4.07;;;2.05;;
66487;SDS011;53304;54.550;18.526;2023-05-16T00:50:35;2.83;;;2.08;;
66487;SDS011;53304;54.550;18.526;2023-05-16T00:53:03;5.07;;;2.17;;
66487;SDS011;53304;54.550;18.526;2023-05-16T00:55:31;4.53;;;2.20;;
66487;SDS011;53304;54.550;18.526;2023-05-16T00:57:57;3.13;;;2.10;;
66487;SDS011;53304;54.550;18.526;2023-05-16T01:00:27;3.65;;;2.33;;
66487;SDS011;53304;54.550;18.526;2023-05-16T01:02:54;3.95;;;2.08;;
66487;SDS011;53304;54.550;18.526;2023-05-16T01:05:24;3.83;;;2.25;;
66487;SDS011;53304;54.550;18.526;2023-05-16T01:07:55;4.15;;;2.03;;
66487;SDS011;53304;54.550;18.526;2023-05-16T01:10:23;3.47;;;2.10;;
66487;SDS011;53304;54.550;18.526;2023-05-16T01:15:44;4.78;;;2.53;;
66487;SDS011;53304;54.550;18.526;2023-05-16T01:23:21;3.88;;;1.80;;
66487;SDS011;53304;54.550;18.526;2023-05-16T01:28:44;2.28;;;1.80;;
66487;SDS011;53304;54.550;18.526;2023-05-16T01:31:13;3.63;;;1.98;;
66487;SDS011;53304;54.550;18.526;2023-05-16T01:33:41;3.35;;;2.10;;
66487;SDS011;53304;54.550;18.526;2023-05-16T01:46:57;3.22;;;2.00;;
66487;SDS011;53304;54.550;18.526;2023-05-16T01:49:34;2.92;;;2.10;;
66487;SDS011;53304;54.550;18.526;2023-05-16T01:52:03;2.88;;;1.95;;
66487;SDS011;53304;54.550;18.526;2023-05-16T01:54:32;4.28;;;2.08;;
66487;SDS011;53304;54.550;18.526;2023-05-16T01:57:01;3.28;;;2.00;;
66487;SDS011;53304;54.550;18.526;2023-05-16T01:59:28;3.03;;;1.90;;
66487;SDS011;53304;54.550;18.526;2023-05-16T02:01:57;3.55;;;2.03;;
66487;SDS011;53304;54.550;18.526;2023-05-16T02:04:23;2.65;;;1.77;;
66487;SDS011;53304;54.550;18.526;2023-05-16T02:06:51;4.40;;;2.00;;
66487;SDS011;53304;54.550;18.526;2023-05-16T02:09:18;4.05;;;2.00;;
66487;SDS011;53304;54.550;18.526;2023-05-16T02:11:46;3.65;;;1.98;;
66487;SDS011;53304;54.550;18.526;2023-05-16T02:14:14;2.20;;;1.73;;
66487;SDS011;53304;54.550;18.526;2023-05-16T02:16:40;3.95;;;1.95;;
66487;SDS011;53304;54.550;18.526;2023-05-16T02:19:05;2.95;;;1.85;;
66487;SDS011;53304;54.550;18.526;2023-05-16T02:21:35;3.85;;;2.10;;
66487;SDS011;53304;54.550;18.526;2023-05-16T02:24:03;3.70;;;1.88;;
66487;SDS011;53304;54.550;18.526;2023-05-16T02:26:29;3.35;;;2.00;;
66487;SDS011;53304;54.550;18.526;2023-05-16T02:28:59;3.00;;;2.00;;
66487;SDS011;53304;54.550;18.526;2023-05-16T02:31:32;3.53;;;2.08;;
66487;SDS011;53304;54.550;18.526;2023-05-16T02:34:00;3.88;;;2.00;;
66487;SDS011;53304;54.550;18.526;2023-05-16T02:36:26;4.07;;;2.00;;
66487;SDS011;53304;54.550;18.526;2023-05-16T02:38:51;3.47;;;1.92;;
66487;SDS011;53304;54.550;18.526;2023-05-16T02:41:17;2.85;;;1.98;;
66487;SDS011;53304;54.550;18.526;2023-05-16T02:43:42;4.43;;;2.05;;
66487;SDS011;53304;54.550;18.526;2023-05-16T02:48:55;3.35;;;1.90;;
66487;SDS011;53304;54.550;18.526;2023-05-16T02:51:26;2.83;;;2.08;;
66487;SDS011;53304;54.550;18.526;2023-05-16T02:53:52;3.35;;;2.10;;
66487;SDS011;53304;54.550;18.526;2023-05-16T02:56:26;2.83;;;2.00;;
66487;SDS011;53304;54.550;18.526;2023-05-16T02:58:54;3.88;;;2.40;;
66487;SDS011;53304;54.550;18.526;2023-05-16T03:01:20;2.72;;;1.85;;
66487;SDS011;53304;54.550;18.526;2023-05-16T03:03:45;3.63;;;2.20;;
66487;SDS011;53304;54.550;18.526;2023-05-16T03:06:11;3.60;;;2.10;;
66487;SDS011;53304;54.550;18.526;2023-05-16T03:08:39;3.28;;;2.08;;
66487;SDS011;53304;54.550;18.526;2023-05-16T03:11:07;4.22;;;2.05;;
66487;SDS011;53304;54.550;18.526;2023-05-16T03:13:32;3.13;;;1.70;;
66487;SDS011;53304;54.550;18.526;2023-05-16T03:15:57;3.97;;;1.90;;
66487;SDS011;53304;54.550;18.526;2023-05-16T03:18:23;4.68;;;2.15;;
66487;SDS011;53304;54.550;18.526;2023-05-16T03:20:51;3.83;;;2.03;;
66487;SDS011;53304;54.550;18.526;2023-05-16T03:23:19;2.70;;;1.90;;
66487;SDS011;53304;54.550;18.526;2023-05-16T03:25:45;3.30;;;1.88;;
66487;SDS011;53304;54.550;18.526;2023-05-16T03:28:13;3.10;;;2.10;;
66487;SDS011;53304;54.550;18.526;2023-05-16T03:30:42;2.75;;;1.77;;
66487;SDS011;53304;54.550;18.526;2023-05-16T03:33:07;4.05;;;2.00;;
66487;SDS011;53304;54.550;18.526;2023-05-16T03:35:35;2.97;;;1.98;;
66487;SDS011;53304;54.550;18.526;2023-05-16T03:38:05;3.58;;;2.10;;
66487;SDS011;53304;54.550;18.526;2023-05-16T03:40:30;5.45;;;2.00;;
66487;SDS011;53304;54.550;18.526;2023-05-16T03:42:56;2.53;;;1.63;;
66487;SDS011;53304;54.550;18.526;2023-05-16T03:45:24;3.28;;;1.70;;
66487;SDS011;53304;54.550;18.526;2023-05-16T03:47:50;3.60;;;1.98;;
66487;SDS011;53304;54.550;18.526;2023-05-16T03:50:16;5.50;;;1.90;;
66487;SDS011;53304;54.550;18.526;2023-05-16T03:52:44;2.97;;;1.90;;
66487;SDS011;53304;54.550;18.526;2023-05-16T03:55:12;3.53;;;1.92;;
66487;SDS011;53304;54.550;18.526;2023-05-16T03:57:40;2.85;;;1.70;;
66487;SDS011;53304;54.550;18.526;2023-05-16T04:00:06;6.25;;;1.80;;
66487;SDS011;53304;54.550;18.526;2023-05-16T04:02:32;3.85;;;1.80;;
66487;SDS011;53304;54.550;18.526;2023-05-16T04:05:00;4.18;;;2.03;;
66487;SDS011;53304;54.550;18.526;2023-05-16T04:07:26;2.78;;;1.80;;
66487;SDS011;53304;54.550;18.526;2023-05-16T04:09:53;4.47;;;1.67;;
66487;SDS011;53304;54.550;18.526;2023-05-16T04:12:22;2.92;;;1.80;;
66487;SDS011;53304;54.550;18.526;2023-05-16T04:14:53;2.13;;;1.52;;
66487;SDS011;53304;54.550;18.526;2023-05-16T04:17:21;2.72;;;1.60;;
66487;SDS011;53304;54.550;18.526;2023-05-16T04:19:46;2.38;;;1.70;;
66487;SDS011;53304;54.550;18.526;2023-05-16T04:22:14;2.83;;;1.58;;
66487;SDS011;53304;54.550;18.526;2023-05-16T04:24:44;2.55;;;1.73;;
66487;SDS011;53304;54.550;18.526;2023-05-16T04:27:12;2.20;;;1.60;;
66487;SDS011;53304;54.550;18.526;2023-05-16T04:29:37;2.25;;;1.58;;
66487;SDS011;53304;54.550;18.526;2023-05-16T04:32:02;2.45;;;1.65;;
66487;SDS011;53304;54.550;18.526;2023-05-16T04:34:31;2.70;;;1.83;;
66487;SDS011;53304;54.550;18.526;2023-05-16T04:36:58;2.75;;;1.75;;
66487;SDS011;53304;54.550;18.526;2023-05-16T04:39:23;2.63;;;1.70;;
66487;SDS011;53304;54.550;18.526;2023-05-16T04:41:52;2.28;;;1.55;;
66487;SDS011;53304;54.550;18.526;2023-05-16T04:44:23;2.28;;;1.45;;
66487;SDS011;53304;54.550;18.526;2023-05-16T04:46:48;2.15;;;1.50;;
66487;SDS011;53304;54.550;18.526;2023-05-16T04:49:14;2.95;;;1.60;;
66487;SDS011;53304;54.550;18.526;2023-05-16T04:51:42;2.67;;;1.55;;
66487;SDS011;53304;54.550;18.526;2023-05-16T04:54:10;2.22;;;1.52;;
66487;SDS011;53304;54.550;18.526;2023-05-16T04:56:37;2.00;;;1.50;;
66487;SDS011;53304;54.550;18.526;2023-05-16T04:59:07;3.28;;;1.65;;
66487;SDS011;53304;54.550;18.526;2023-05-16T05:01:35;1.98;;;1.50;;
66487;SDS011;53304;54.550;18.526;2023-05-16T05:04:01;3.17;;;1.52;;
66487;SDS011;53304;54.550;18.526;2023-05-16T05:06:31;3.33;;;1.60;;
66487;SDS011;53304;54.550;18.526;2023-05-16T05:08:56;2.75;;;1.40;;
66487;SDS011;53304;54.550;18.526;2023-05-16T05:11:24;2.22;;;1.48;;
66487;SDS011;53304;54.550;18.526;2023-05-16T05:13:51;2.65;;;1.70;;
66487;SDS011;53304;54.550;18.526;2023-05-16T05:16:16;2.10;;;1.35;;
66487;SDS011;53304;54.550;18.526;2023-05-16T05:18:47;3.85;;;1.60;;
66487;SDS011;53304;54.550;18.526;2023-05-16T05:21:12;2.50;;;1.40;;
66487;SDS011;53304;54.550;18.526;2023-05-16T05:23:38;3.30;;;1.60;;
66487;SDS011;53304;54.550;18.526;2023-05-16T05:26:04;1.88;;;1.52;;
66487;SDS011;53304;54.550;18.526;2023-05-16T05:28:29;3.47;;;1.60;;
66487;SDS011;53304;54.550;18.526;2023-05-16T05:30:55;2.58;;;1.63;;
66487;SDS011;53304;54.550;18.526;2023-05-16T05:33:25;4.78;;;1.52;;
66487;SDS011;53304;54.550;18.526;2023-05-16T05:35:53;4.70;;;1.65;;
66487;SDS011;53304;54.550;18.526;2023-05-16T05:38:24;4.03;;;1.60;;
66487;SDS011;53304;54.550;18.526;2023-05-16T05:40:52;3.90;;;1.33;;
66487;SDS011;53304;54.550;18.526;2023-05-16T05:43:17;6.60;;;1.20;;
66487;SDS011;53304;54.550;18.526;2023-05-16T05:45:43;4.03;;;1.13;;
66487;SDS011;53304;54.550;18.526;2023-05-16T05:48:08;4.28;;;1.40;;
66487;SDS011;53304;54.550;18.526;2023-05-16T05:50:36;2.67;;;1.30;;
66487;SDS011;53304;54.550;18.526;2023-05-16T05:53:04;7.88;;;1.70;;
66487;SDS011;53304;54.550;18.526;2023-05-16T05:55:29;8.50;;;2.40;;
66487;SDS011;53304;54.550;18.526;2023-05-16T05:57:57;13.23;;;2.22;;
66487;SDS011;53304;54.550;18.526;2023-05-16T06:00:25;9.23;;;1.92;;
66487;SDS011;53304;54.550;18.526;2023-05-16T06:02:50;10.13;;;1.90;;
66487;SDS011;53304;54.550;18.526;2023-05-16T06:05:16;5.75;;;1.77;;
66487;SDS011;53304;54.550;18.526;2023-05-16T06:07:44;15.10;;;2.55;;
66487;SDS011;53304;54.550;18.526;2023-05-16T06:10:09;6.03;;;1.60;;
66487;SDS011;53304;54.550;18.526;2023-05-16T06:12:37;6.90;;;1.60;;
66487;SDS011;53304;54.550;18.526;2023-05-16T06:15:02;6.03;;;1.65;;
66487;SDS011;53304;54.550;18.526;2023-05-16T06:17:28;8.88;;;1.30;;
66487;SDS011;53304;54.550;18.526;2023-05-16T06:19:53;4.47;;;1.30;;
66487;SDS011;53304;54.550;18.526;2023-05-16T06:22:19;3.63;;;1.30;;
66487;SDS011;53304;54.550;18.526;2023-05-16T06:24:49;6.18;;;1.48;;
66487;SDS011;53304;54.550;18.526;2023-05-16T06:27:17;3.67;;;1.38;;
66487;SDS011;53304;54.550;18.526;2023-05-16T06:29:42;3.17;;;1.42;;
66487;SDS011;53304;54.550;18.526;2023-05-16T06:32:10;2.83;;;1.40;;
66487;SDS011;53304;54.550;18.526;2023-05-16T06:34:35;2.58;;;1.30;;
66487;SDS011;53304;54.550;18.526;2023-05-16T06:37:01;3.13;;;1.50;;
66487;SDS011;53304;54.550;18.526;2023-05-16T06:39:27;2.13;;;1.23;;
66487;SDS011;53304;54.550;18.526;2023-05-16T06:41:53;4.30;;;1.40;;
66487;SDS011;53304;54.550;18.526;2023-05-16T06:44:19;2.45;;;1.30;;
66487;SDS011;53304;54.550;18.526;2023-05-16T06:46:44;2.60;;;1.30;;
66487;SDS011;53304;54.550;18.526;2023-05-16T06:49:10;6.65;;;1.60;;
66487;SDS011;53304;54.550;18.526;2023-05-16T06:51:37;2.28;;;1.20;;
66487;SDS011;53304;54.550;18.526;2023-05-16T06:54:05;2.10;;;1.17;;
66487;SDS011;53304;54.550;18.526;2023-05-16T06:56:33;3.15;;;1.30;;
66487;SDS011;53304;54.550;18.526;2023-05-16T06:58:58;2.95;;;1.50;;
66487;SDS011;53304;54.550;18.526;2023-05-16T07:01:26;3.50;;;1.38;;
66487;SDS011;53304;54.550;18.526;2023-05-16T07:03:54;5.07;;;1.42;;
66487;SDS011;53304;54.550;18.526;2023-05-16T07:06:19;4.60;;;1.50;;
66487;SDS011;53304;54.550;18.526;2023-05-16T07:08:45;4.00;;;1.92;;
66487;SDS011;53304;54.550;18.526;2023-05-16T07:11:10;2.90;;;1.58;;
66487;SDS011;53304;54.550;18.526;2023-05-16T07:13:38;3.78;;;1.60;;
66487;SDS011;53304;54.550;18.526;2023-05-16T07:16:06;2.47;;;1.60;;
66487;SDS011;53304;54.550;18.526;2023-05-16T07:18:33;3.47;;;2.00;;
66487;SDS011;53304;54.550;18.526;2023-05-16T07:21:01;4.05;;;1.88;;
66487;SDS011;53304;54.550;18.526;2023-05-16T07:23:34;4.68;;;1.90;;
66487;SDS011;53304;54.550;18.526;2023-05-16T07:25:59;2.53;;;1.73;;
66487;SDS011;53304;54.550;18.526;2023-05-16T07:28:24;4.18;;;1.80;;
66487;SDS011;53304;54.550;18.526;2023-05-16T07:30:50;4.03;;;1.75;;
66487;SDS011;53304;54.550;18.526;2023-05-16T07:33:15;2.13;;;1.40;;
66487;SDS011;53304;54.550;18.526;2023-05-16T07:35:41;3.63;;;1.60;;
66487;SDS011;53304;54.550;18.526;2023-05-16T07:38:09;2.67;;;1.30;;
66487;SDS011;53304;54.550;18.526;2023-05-16T07:40:34;1.92;;;1.25;;
66487;SDS011;53304;54.550;18.526;2023-05-16T07:42:59;2.00;;;1.23;;
66487;SDS011;53304;54.550;18.526;2023-05-16T07:45:26;2.53;;;1.40;;
66487;SDS011;53304;54.550;18.526;2023-05-16T07:47:56;3.25;;;1.70;;
66487;SDS011;53304;54.550;18.526;2023-05-16T07:50:23;6.85;;;2.33;;
66487;SDS011;53304;54.550;18.526;2023-05-16T07:52:51;8.00;;;2.17;;
66487;SDS011;53304;54.550;18.526;2023-05-16T07:55:19;9.00;;;2.70;;
66487;SDS011;53304;54.550;18.526;2023-05-16T07:57:46;8.75;;;2.75;;
66487;SDS011;53304;54.550;18.526;2023-05-16T08:00:12;6.20;;;2.25;;
66487;SDS011;53304;54.550;18.526;2023-05-16T08:02:38;9.00;;;2.60;;
66487;SDS011;53304;54.550;18.526;2023-05-16T08:05:03;7.03;;;2.80;;
66487;SDS011;53304;54.550;18.526;2023-05-16T08:07:34;6.00;;;2.70;;
66487;SDS011;53304;54.550;18.526;2023-05-16T08:09:59;10.02;;;2.95;;
66487;SDS011;53304;54.550;18.526;2023-05-16T08:12:32;8.13;;;3.40;;
66487;SDS011;53304;54.550;18.526;2023-05-16T08:15:00;6.53;;;3.45;;
66487;SDS011;53304;54.550;18.526;2023-05-16T08:17:30;6.40;;;3.42;;
66487;SDS011;53304;54.550;18.526;2023-05-16T08:19:58;7.50;;;3.55;;
66487;SDS011;53304;54.550;18.526;2023-05-16T08:22:25;6.18;;;3.38;;
66487;SDS011;53304;54.550;18.526;2023-05-16T08:24:53;6.15;;;3.72;;
66487;SDS011;53304;54.550;18.526;2023-05-16T08:27:23;8.38;;;3.63;;
66487;SDS011;53304;54.550;18.526;2023-05-16T08:29:51;5.88;;;3.67;;
66487;SDS011;53304;54.550;18.526;2023-05-16T08:32:21;7.03;;;4.10;;
66487;SDS011;53304;54.550;18.526;2023-05-16T08:34:47;6.50;;;3.90;;
66487;SDS011;53304;54.550;18.526;2023-05-16T08:37:12;7.60;;;3.58;;
66487;SDS011;53304;54.550;18.526;2023-05-16T08:39:40;6.32;;;3.60;;
66487;SDS011;53304;54.550;18.526;2023-05-16T08:42:08;5.53;;;3.70;;
66487;SDS011;53304;54.550;18.526;2023-05-16T08:44:33;6.30;;;3.67;;
66487;SDS011;53304;54.550;18.526;2023-05-16T08:47:03;5.30;;;3.67;;
66487;SDS011;53304;54.550;18.526;2023-05-16T08:49:42;7.32;;;3.40;;
66487;SDS011;53304;54.550;18.526;2023-05-16T08:52:08;6.68;;;3.13;;
66487;SDS011;53304;54.550;18.526;2023-05-16T08:54:36;6.65;;;3.50;;
66487;SDS011;53304;54.550;18.526;2023-05-16T08:57:04;6.88;;;3.22;;
66487;SDS011;53304;54.550;18.526;2023-05-16T08:59:33;6.32;;;3.75;;
66487;SDS011;53304;54.550;18.526;2023-05-16T09:02:06;5.32;;;3.33;;
66487;SDS011;53304;54.550;18.526;2023-05-16T09:04:31;5.32;;;3.05;;
66487;SDS011;53304;54.550;18.526;2023-05-16T09:06:59;5.10;;;3.30;;
66487;SDS011;53304;54.550;18.526;2023-05-16T09:09:25;4.38;;;2.70;;
66487;SDS011;53304;54.550;18.526;2023-05-16T09:11:50;4.43;;;2.97;;
66487;SDS011;53304;54.550;18.526;2023-05-16T09:14:15;6.43;;;3.20;;
66487;SDS011;53304;54.550;18.526;2023-05-16T09:16:41;4.80;;;2.72;;
66487;SDS011;53304;54.550;18.526;2023-05-16T09:19:11;5.88;;;2.78;;
66487;SDS011;53304;54.550;18.526;2023-05-16T09:21:40;6.18;;;2.85;;
66487;SDS011;53304;54.550;18.526;2023-05-16T09:24:08;4.95;;;2.80;;
66487;SDS011;53304;54.550;18.526;2023-05-16T09:26:35;4.95;;;2.75;;
66487;SDS011;53304;54.550;18.526;2023-05-16T09:29:10;5.45;;;3.00;;
66487;SDS011;53304;54.550;18.526;2023-05-16T09:31:36;11.20;;;3.00;;
66487;SDS011;53304;54.550;18.526;2023-05-16T09:34:07;5.80;;;2.50;;
66487;SDS011;53304;54.550;18.526;2023-05-16T09:36:35;4.03;;;2.50;;
66487;SDS011;53304;54.550;18.526;2023-05-16T09:39:06;4.32;;;2.53;;
66487;SDS011;53304;54.550;18.526;2023-05-16T09:41:39;4.38;;;2.72;;
66487;SDS011;53304;54.550;18.526;2023-05-16T09:44:05;4.78;;;2.65;;
66487;SDS011;53304;54.550;18.526;2023-05-16T09:46:33;5.07;;;2.47;;
66487;SDS011;53304;54.550;18.526;2023-05-16T09:49:00;5.57;;;2.70;;
66487;SDS011;53304;54.550;18.526;2023-05-16T09:51:25;3.83;;;2.45;;
66487;SDS011;53304;54.550;18.526;2023-05-16T09:53:51;3.80;;;2.47;;
66487;SDS011;53304;54.550;18.526;2023-05-16T09:56:19;5.20;;;2.40;;
66487;SDS011;53304;54.550;18.526;2023-05-16T09:58:50;4.00;;;2.40;;
66487;SDS011;53304;54.550;18.526;2023-05-16T10:01:16;5.63;;;2.45;;
66487;SDS011;53304;54.550;18.526;2023-05-16T10:03:42;3.22;;;2.20;;
66487;SDS011;53304;54.550;18.526;2023-05-16T10:06:08;3.63;;;2.15;;
66487;SDS011;53304;54.550;18.526;2023-05-16T10:08:36;3.45;;;2.30;;
66487;SDS011;53304;54.550;18.526;2023-05-16T10:11:05;6.07;;;2.50;;
66487;SDS011;53304;54.550;18.526;2023-05-16T10:13:33;3.58;;;2.40;;
66487;SDS011;53304;54.550;18.526;2023-05-16T10:16:00;4.00;;;2.25;;
66487;SDS011;53304;54.550;18.526;2023-05-16T10:18:33;4.47;;;2.35;;
66487;SDS011;53304;54.550;18.526;2023-05-16T10:21:02;5.50;;;2.60;;
66487;SDS011;53304;54.550;18.526;2023-05-16T10:23:32;4.03;;;2.28;;
66487;SDS011;53304;54.550;18.526;2023-05-16T10:26:01;3.72;;;2.05;;
66487;SDS011;53304;54.550;18.526;2023-05-16T10:28:28;4.10;;;2.10;;
66487;SDS011;53304;54.550;18.526;2023-05-16T10:30:53;4.45;;;2.50;;
66487;SDS011;53304;54.550;18.526;2023-05-16T10:33:22;4.10;;;2.30;;
66487;SDS011;53304;54.550;18.526;2023-05-16T10:35:49;3.70;;;2.20;;
66487;SDS011;53304;54.550;18.526;2023-05-16T10:38:16;5.43;;;2.45;;
66487;SDS011;53304;54.550;18.526;2023-05-16T10:40:42;4.50;;;2.42;;
66487;SDS011;53304;54.550;18.526;2023-05-16T10:43:09;4.90;;;2.38;;
66487;SDS011;53304;54.550;18.526;2023-05-16T10:45:42;4.15;;;2.30;;
66487;SDS011;53304;54.550;18.526;2023-05-16T10:48:11;2.80;;;2.05;;
66487;SDS011;53304;54.550;18.526;2023-05-16T10:50:37;3.88;;;2.10;;
66487;SDS011;53304;54.550;18.526;2023-05-16T10:58:17;3.40;;;2.10;;
66487;SDS011;53304;54.550;18.526;2023-05-16T11:00:43;3.38;;;2.03;;
66487;SDS011;53304;54.550;18.526;2023-05-16T11:03:18;3.22;;;2.03;;
66487;SDS011;53304;54.550;18.526;2023-05-16T11:05:50;3.50;;;2.17;;
66487;SDS011;53304;54.550;18.526;2023-05-16T11:08:21;2.42;;;2.00;;
66487;SDS011;53304;54.550;18.526;2023-05-16T11:10:46;4.05;;;2.13;;
66487;SDS011;53304;54.550;18.526;2023-05-16T11:13:12;3.42;;;2.00;;
66487;SDS011;53304;54.550;18.526;2023-05-16T11:15:43;4.05;;;2.22;;
66487;SDS011;53304;54.550;18.526;2023-05-16T11:18:12;3.85;;;2.10;;
66487;SDS011;53304;54.550;18.526;2023-05-16T11:20:42;5.68;;;2.30;;
66487;SDS011;53304;54.550;18.526;2023-05-16T11:23:17;3.42;;;1.90;;
66487;SDS011;53304;54.550;18.526;2023-05-16T11:25:45;3.08;;;2.10;;
66487;SDS011;53304;54.550;18.526;2023-05-16T11:28:16;5.40;;;2.33;;
66487;SDS011;53304;54.550;18.526;2023-05-16T11:30:48;3.67;;;2.60;;
66487;SDS011;53304;54.550;18.526;2023-05-16T11:33:15;5.15;;;2.28;;
66487;SDS011;53304;54.550;18.526;2023-05-16T11:35:44;3.58;;;2.20;;
66487;SDS011;53304;54.550;18.526;2023-05-16T11:38:28;5.05;;;2.20;;
66487;SDS011;53304;54.550;18.526;2023-05-16T11:41:00;5.47;;;2.15;;
66487;SDS011;53304;54.550;18.526;2023-05-16T11:43:28;4.72;;;2.40;;
66487;SDS011;53304;54.550;18.526;2023-05-16T11:45:53;3.45;;;1.95;;
66487;SDS011;53304;54.550;18.526;2023-05-16T11:48:22;4.15;;;2.33;;
66487;SDS011;53304;54.550;18.526;2023-05-16T11:50:48;5.47;;;2.53;;
66487;SDS011;53304;54.550;18.526;2023-05-16T11:53:20;3.28;;;1.90;;
66487;SDS011;53304;54.550;18.526;2023-05-16T11:55:46;3.65;;;2.40;;
66487;SDS011;53304;54.550;18.526;2023-05-16T11:58:16;4.00;;;2.13;;
66487;SDS011;53304;54.550;18.526;2023-05-16T12:00:50;5.55;;;2.60;;
66487;SDS011;53304;54.550;18.526;2023-05-16T12:03:16;7.40;;;2.80;;
66487;SDS011;53304;54.550;18.526;2023-05-16T12:05:49;5.80;;;2.60;;
66487;SDS011;53304;54.550;18.526;2023-05-16T12:08:18;6.50;;;2.60;;
66487;SDS011;53304;54.550;18.526;2023-05-16T12:10:46;8.15;;;2.80;;
66487;SDS011;53304;54.550;18.526;2023-05-16T12:13:13;7.05;;;2.50;;
66487;SDS011;53304;54.550;18.526;2023-05-16T12:15:41;6.60;;;2.50;;
66487;SDS011;53304;54.550;18.526;2023-05-16T12:18:08;5.97;;;2.55;;
66487;SDS011;53304;54.550;18.526;2023-05-16T12:20:33;9.35;;;2.78;;
66487;SDS011;53304;54.550;18.526;2023-05-16T12:22:59;5.15;;;2.30;;
66487;SDS011;53304;54.550;18.526;2023-05-16T12:25:25;5.97;;;2.60;;
66487;SDS011;53304;54.550;18.526;2023-05-16T12:27:56;5.97;;;2.40;;
66487;SDS011;53304;54.550;18.526;2023-05-16T12:30:23;5.88;;;2.55;;
66487;SDS011;53304;54.550;18.526;2023-05-16T12:32:56;5.60;;;2.03;;
66487;SDS011;53304;54.550;18.526;2023-05-16T12:35:28;5.28;;;2.20;;
66487;SDS011;53304;54.550;18.526;2023-05-16T12:38:02;4.80;;;2.33;;
66487;SDS011;53304;54.550;18.526;2023-05-16T12:40:29;5.63;;;2.60;;
66487;SDS011;53304;54.550;18.526;2023-05-16T12:42:54;5.45;;;2.45;;
66487;SDS011;53304;54.550;18.526;2023-05-16T12:45:23;4.95;;;2.60;;
66487;SDS011;53304;54.550;18.526;2023-05-16T12:47:48;6.28;;;2.58;;
66487;SDS011;53304;54.550;18.526;2023-05-16T12:50:16;6.35;;;2.15;;
66487;SDS011;53304;54.550;18.526;2023-05-16T12:52:45;5.70;;;2.40;;
66487;SDS011;53304;54.550;18.526;2023-05-16T12:55:12;4.35;;;2.50;;
66487;SDS011;53304;54.550;18.526;2023-05-16T12:57:40;3.55;;;2.40;;
66487;SDS011;53304;54.550;18.526;2023-05-16T13:00:08;5.15;;;2.50;;
66487;SDS011;53304;54.550;18.526;2023-05-16T13:02:38;4.60;;;2.70;;
66487;SDS011;53304;54.550;18.526;2023-05-16T13:05:06;4.63;;;2.75;;
66487;SDS011;53304;54.550;18.526;2023-05-16T13:07:37;6.82;;;3.10;;
66487;SDS011;53304;54.550;18.526;2023-05-16T13:10:07;4.22;;;2.60;;
66487;SDS011;53304;54.550;18.526;2023-05-16T13:12:36;5.97;;;2.50;;
66487;SDS011;53304;54.550;18.526;2023-05-16T13:15:02;6.97;;;2.90;;
66487;SDS011;53304;54.550;18.526;2023-05-16T13:17:28;5.63;;;2.40;;
66487;SDS011;53304;54.550;18.526;2023-05-16T13:19:54;5.13;;;2.45;;
66487;SDS011;53304;54.550;18.526;2023-05-16T13:22:22;6.93;;;2.83;;
66487;SDS011;53304;54.550;18.526;2023-05-16T13:24:50;4.25;;;2.65;;
66487;SDS011;53304;54.550;18.526;2023-05-16T13:27:17;4.57;;;2.55;;
66487;SDS011;53304;54.550;18.526;2023-05-16T13:29:43;3.85;;;2.22;;
66487;SDS011;53304;54.550;18.526;2023-05-16T13:32:11;5.78;;;2.60;;
66487;SDS011;53304;54.550;18.526;2023-05-16T13:34:41;4.55;;;2.78;;
66487;SDS011;53304;54.550;18.526;2023-05-16T13:37:07;9.07;;;2.60;;
66487;SDS011;53304;54.550;18.526;2023-05-16T13:39:32;4.20;;;2.33;;
66487;SDS011;53304;54.550;18.526;2023-05-16T13:42:02;4.63;;;2.60;;
66487;SDS011;53304;54.550;18.526;2023-05-16T13:44:30;4.93;;;2.53;;
66487;SDS011;53304;54.550;18.526;2023-05-16T13:46:56;9.15;;;2.60;;
66487;SDS011;53304;54.550;18.526;2023-05-16T13:49:26;3.35;;;2.20;;
66487;SDS011;53304;54.550;18.526;2023-05-16T13:51:54;4.60;;;2.35;;
66487;SDS011;53304;54.550;18.526;2023-05-16T13:54:21;6.13;;;2.50;;
66487;SDS011;53304;54.550;18.526;2023-05-16T13:56:49;5.28;;;2.63;;
66487;SDS011;53304;54.550;18.526;2023-05-16T13:59:14;3.83;;;2.38;;
66487;SDS011;53304;54.550;18.526;2023-05-16T14:01:42;5.13;;;2.70;;
66487;SDS011;53304;54.550;18.526;2023-05-16T14:04:10;3.97;;;2.40;;
66487;SDS011;53304;54.550;18.526;2023-05-16T14:06:35;4.85;;;2.40;;
66487;SDS011;53304;54.550;18.526;2023-05-16T14:09:03;3.30;;;2.47;;
66487;SDS011;53304;54.550;18.526;2023-05-16T14:11:29;4.45;;;2.67;;
66487;SDS011;53304;54.550;18.526;2023-05-16T14:13:57;4.63;;;2.78;;
66487;SDS011;53304;54.550;18.526;2023-05-16T14:16:22;4.28;;;2.30;;
66487;SDS011;53304;54.550;18.526;2023-05-16T14:18:48;6.13;;;2.55;;
66487;SDS011;53304;54.550;18.526;2023-05-16T14:21:13;3.67;;;2.35;;
66487;SDS011;53304;54.550;18.526;2023-05-16T14:23:39;4.70;;;2.30;;
66487;SDS011;53304;54.550;18.526;2023-05-16T14:26:06;5.90;;;2.60;;
66487;SDS011;53304;54.550;18.526;2023-05-16T14:28:32;5.95;;;2.70;;
66487;SDS011;53304;54.550;18.526;2023-05-16T14:30:58;5.15;;;2.55;;
66487;SDS011;53304;54.550;18.526;2023-05-16T14:33:26;4.05;;;2.42;;
66487;SDS011;53304;54.550;18.526;2023-05-16T14:35:52;4.97;;;2.40;;
66487;SDS011;53304;54.550;18.526;2023-05-16T14:38:17;4.75;;;2.60;;
66487;SDS011;53304;54.550;18.526;2023-05-16T14:40:43;4.88;;;2.45;;
66487;SDS011;53304;54.550;18.526;2023-05-16T14:43:09;3.92;;;2.38;;
66487;SDS011;53304;54.550;18.526;2023-05-16T14:45:36;4.38;;;2.45;;
66487;SDS011;53304;54.550;18.526;2023-05-16T14:48:01;5.65;;;2.28;;
66487;SDS011;53304;54.550;18.526;2023-05-16T14:50:32;5.40;;;2.42;;
66487;SDS011;53304;54.550;18.526;2023-05-16T14:53:02;4.07;;;2.42;;
66487;SDS011;53304;54.550;18.526;2023-05-16T14:55:27;4.00;;;2.50;;
66487;SDS011;53304;54.550;18.526;2023-05-16T14:57:55;4.80;;;2.30;;
66487;SDS011;53304;54.550;18.526;2023-05-16T15:00:25;5.15;;;2.50;;
66487;SDS011;53304;54.550;18.526;2023-05-16T15:02:53;4.53;;;2.50;;
66487;SDS011;53304;54.550;18.526;2023-05-16T15:05:23;4.03;;;2.55;;